Pagrindinis puslapis
METAR-TAF:

METAR-TAF

Oro uostai :

Doha, Kataras

platuma: 25-16-23N, ilguma: 51-36-29E, Aukštis: 4 m

Dabartinis oras

Ataskaita buvo paskelbta 57 minutes, ne 06:00 UTC
Vėjas 10 kt iš Šiaurės/Šiaurės Vakarų
Temperatūra 29°C
Drėgmė 52%
Slėgis 1014 hPa
Matomumas 10 km arba daugiau
nėra debesų žemiau 1500 m ir nėra kamuolinių lietaus debesų

METAR: OTHH 210600Z AUTO 33010KT CAVOK 29/18 Q1014 NOSIG

Laikas: 09:57 (06:57 UTC)

Prognozė

Ataskaita buvo paskelbta 1 valandą ir 57 minutes, ne 05:00 UTC
Prognozė galioja nuo 21 metu 06 UTC su 22 metu 12 UTC
Vėjas 10 kt iš Šiaurės/Šiaurės Vakarų
Matomumas 10 km arba daugiau
nėra debesų žemiau 1500 m ir nėra kamuolinių lietaus debesų
Tapsmas
nuo 21 metu 08 UTC su 21 metu 10 UTC
Vėjas 12 kt iš Šiaurės Rytų
Tapsmas
nuo 21 metu 18 UTC su 21 metu 20 UTC
Vėjas 7 kt iš Šiaurės Vakarų
Tikimybė 30% :
Laikinai
nuo 21 metu 23 UTC su 22 metu 03 UTC
Matomumas: 5000 m
migla

TAF: OTHH 210500Z 2106/2212 33010KT CAVOK BECMG 2108/2110 05012KT BECMG 2118/2120 32007KT PROB30 TEMPO 2123/2203 5000 HZ

Orai ataskaitas ir orų prognozės (METAR, TAF).

turimą stotys yra geltonos ir raudonos taškus žemėlapyje.

Perkelti pele per norėdami pamatyti stoties vardą.

Tada spustelėkite, norėdami matyti oro stebėjimo ir prognozės.

Norėdami pakeisti žemėlapį: spustelėkite ant žalios mygtukų su juodo kryžiaus žemyn,; žalią mygtuką su brūkšneliu, jei norite nutolinti; arba žalių rodyklių gretimoms žemėlapius.


METAR-TAF: